Dubai, UAE

5:16 AM GST on July 24, 2016 (GMT +0400)
Satwa | | Change Station

Elev 13 ft 25.22 °N, 55.27 °E | Updated 12 seconds ago

Clear
Clear
94.1 °F
Feels Like 111 °F
N
2.7
Wind Variable Wind from West
Gusts 7.4 mph

Today
High -- | Low -- °F
--% Chance of Precip.
Yesterday
High -- | Low -- °F
Precip. -- in
Pressure 29.42 in
Visibility 3.1 miles
Clouds
Heat Index 111 °F
Dew Point 79 °F
Humidity 61%
Rainfall 0.00 in
Snow Depth Not available.
5:42 AM 7:08 PM
Waning Gibbous, 81% visible
METAR OMDB 240100Z 11011KT 5000 DU NSC 35/26 Q0996 BECMG 11015G25KT 3000 BLDU
Pressure 29.42 in
Visibility 3.1 miles
Clouds
Heat Index 111 °F
Dew Point 79 °F
Humidity 61%
Rainfall 0.00 in
Snow Depth Not available.
5:42 AM 7:08 PM
Waning Gibbous, 81% visible
METAR OMDB 240100Z 11011KT 5000 DU NSC 35/26 Q0996 BECMG 11015G25KT 3000 BLDU

10-Day Weather Forecast

No radar image for this location.
×

Almanac

Astronomy

Jul. 24, 2016 Rise Set
Actual Time
Civil Twilight
Nautical Twilight
Astronomical Twilight
Moon
Length of Visible Light
Length of Day
Tomorrow will be .
, % of the Moon is Illuminated

Today's Extremes

Country Highs Country Lows

Community

WunderPhotos

Upload Photos

1,926,992 photos uploaded!

WunderBlog® & News

Nearby

Air Quality

  Air Quality AQ Index Pollutant
Not available.

Snow Depth

Station Depth Elevation

Earthquake Activity

City Distance Mag. Time & Date
Minimum magnitude displayed is 2.5.

Coastal Water Temperatures

Place Temperature

Stations

Nearby Weather Stations

Station Location Temp. Windchill Dew Point Humidity Wind Precip. Elev Updated Type